createdAt,value
2022-12-11T06:06:02.905Z,0.00
2022-12-11T06:07:02.895Z,0.00
2022-12-11T06:08:02.928Z,0.00
2022-12-11T06:09:02.877Z,0.00
2022-12-11T06:10:02.866Z,0.00
2022-12-11T06:11:02.856Z,0.00
2022-12-11T06:17:02.793Z,0.00
2022-12-11T06:18:02.788Z,0.00
2022-12-11T06:19:02.776Z,0.00
2022-12-11T06:23:02.736Z,0.00
2022-12-11T06:24:02.731Z,0.00
2022-12-11T06:25:02.717Z,0.00
2022-12-11T06:26:02.708Z,0.00
2022-12-11T06:27:02.706Z,0.00
2022-12-11T06:28:02.685Z,0.00
2022-12-11T06:29:05.263Z,0.00
2022-12-11T06:30:03.691Z,0.00
2022-12-11T06:31:02.654Z,0.00
2022-12-11T06:32:02.731Z,0.00
2022-12-11T06:33:02.637Z,0.00
2022-12-11T06:34:02.626Z,0.00
2022-12-11T06:35:02.617Z,0.00
2022-12-11T06:36:02.614Z,0.00
2022-12-11T06:37:02.633Z,0.00
2022-12-11T06:38:02.594Z,0.00
2022-12-11T06:39:02.586Z,0.00
2022-12-11T06:40:02.573Z,0.00
2022-12-11T06:41:02.564Z,0.00
2022-12-11T06:42:02.551Z,0.00
2022-12-11T06:43:02.540Z,0.00
2022-12-11T06:44:02.532Z,0.00
2022-12-11T06:45:02.518Z,0.00
2022-12-11T06:46:04.414Z,0.00
2022-12-11T06:47:02.597Z,5.62
2022-12-11T06:48:02.489Z,5.62
2022-12-11T06:49:02.475Z,5.62
2022-12-11T06:50:02.467Z,5.62
2022-12-11T06:51:02.459Z,5.62
2022-12-11T06:52:02.450Z,5.62
2022-12-11T06:53:02.462Z,5.62
2022-12-11T06:54:02.425Z,11.25
2022-12-11T06:55:02.419Z,11.25
2022-12-11T06:56:02.406Z,11.25
2022-12-11T06:57:02.428Z,11.25
2022-12-11T06:58:02.390Z,16.87
2022-12-11T06:59:07.075Z,16.87
2022-12-11T07:00:02.401Z,16.87
2022-12-11T07:01:02.433Z,16.87
2022-12-11T07:02:02.403Z,22.50
2022-12-11T07:03:02.344Z,22.50
2022-12-11T07:04:02.331Z,22.50
2022-12-11T07:05:02.322Z,22.50
2022-12-11T07:06:02.321Z,28.12
2022-12-11T07:07:02.300Z,28.12
2022-12-11T07:08:02.418Z,28.12
2022-12-11T07:09:02.304Z,33.75
2022-12-11T07:10:08.052Z,33.75
2022-12-11T07:11:03.283Z,33.75
2022-12-11T07:12:02.251Z,33.75
2022-12-11T07:13:02.236Z,39.37
2022-12-11T07:14:02.232Z,39.37
2022-12-11T07:15:02.233Z,39.37
2022-12-11T07:16:02.297Z,45.00
2022-12-11T07:17:02.199Z,45.00
2022-12-11T07:18:02.191Z,45.00
2022-12-11T07:19:02.177Z,50.62
2022-12-11T07:20:02.187Z,50.62
2022-12-11T07:21:02.165Z,50.62
2022-12-11T07:22:02.159Z,56.25
2022-12-11T07:23:02.139Z,56.25
2022-12-11T07:24:02.132Z,56.25
2022-12-11T07:25:02.145Z,61.87
2022-12-11T07:26:02.110Z,61.87
2022-12-11T07:27:02.098Z,61.87
2022-12-11T07:28:02.090Z,67.50
2022-12-11T07:29:02.082Z,67.50
2022-12-11T07:30:02.072Z,67.50
2022-12-11T07:31:02.059Z,73.12
2022-12-11T07:32:02.207Z,73.12
2022-12-11T07:33:02.088Z,73.12
2022-12-11T07:34:02.034Z,78.75
2022-12-11T07:35:02.023Z,78.75
2022-12-11T07:36:02.014Z,84.37
2022-12-11T07:37:02.001Z,84.37
2022-12-11T07:38:01.992Z,84.37
2022-12-11T07:39:01.994Z,90.00
2022-12-11T07:40:01.969Z,106.87
2022-12-11T07:41:01.989Z,129.37
2022-12-11T07:42:01.949Z,140.62
2022-12-11T07:43:01.942Z,151.87
2022-12-11T07:44:01.942Z,157.50
2022-12-11T07:45:01.935Z,157.50
2022-12-11T07:46:02.013Z,157.50
2022-12-11T07:47:01.899Z,163.12
2022-12-11T07:48:02.040Z,168.75
2022-12-11T07:49:01.886Z,185.62
2022-12-11T07:50:01.872Z,213.75
2022-12-11T07:51:01.864Z,247.50
2022-12-11T07:52:01.853Z,270.00
2022-12-11T07:53:01.840Z,264.37
2022-12-11T07:54:01.829Z,241.87
2022-12-11T07:55:01.867Z,213.75
2022-12-11T07:56:01.812Z,213.75
2022-12-11T07:57:01.826Z,225.00
2022-12-11T07:58:01.794Z,236.25
2022-12-11T07:59:01.786Z,241.87
2022-12-11T08:00:01.769Z,241.87
2022-12-11T08:01:01.847Z,247.50
2022-12-11T08:02:01.812Z,253.12
2022-12-11T08:03:01.759Z,247.50
2022-12-11T08:04:01.741Z,247.50
2022-12-11T08:05:01.718Z,253.12
2022-12-11T08:06:01.712Z,264.37
2022-12-11T08:07:01.697Z,270.00
2022-12-11T08:08:01.740Z,275.62
2022-12-11T08:09:01.675Z,275.62
2022-12-11T08:10:01.668Z,281.25
2022-12-11T08:11:01.656Z,286.87
2022-12-11T08:12:01.647Z,292.50
2022-12-11T08:13:01.661Z,292.50
2022-12-11T08:14:01.625Z,298.12
2022-12-11T08:15:01.620Z,303.75
2022-12-11T08:16:01.703Z,309.37
2022-12-11T08:17:01.646Z,315.00
2022-12-11T08:18:01.586Z,320.62
2022-12-11T08:19:01.579Z,320.62
2022-12-11T08:20:01.565Z,326.25
2022-12-11T08:21:01.557Z,326.25
2022-12-11T08:22:01.544Z,331.87
2022-12-11T08:23:01.536Z,337.50
2022-12-11T08:24:01.526Z,343.12
2022-12-11T08:25:01.514Z,348.75
2022-12-11T08:26:01.576Z,354.37
2022-12-11T08:27:01.496Z,360.00
2022-12-11T08:28:01.482Z,365.62
2022-12-11T08:29:01.495Z,371.25
2022-12-11T08:30:01.464Z,388.12
2022-12-11T08:31:01.500Z,393.75
2022-12-11T08:32:01.444Z,393.75
2022-12-11T08:33:01.435Z,393.75
2022-12-11T08:34:01.421Z,399.37
2022-12-11T08:35:01.417Z,410.62
2022-12-11T08:36:01.428Z,416.25
2022-12-11T08:37:01.391Z,421.87
2022-12-11T08:38:01.377Z,421.87
2022-12-11T08:39:01.368Z,427.50
2022-12-11T08:40:01.360Z,438.75
2022-12-11T08:41:01.346Z,450.00
2022-12-11T08:42:01.337Z,455.62
2022-12-11T08:43:01.326Z,472.50
2022-12-11T08:44:01.318Z,483.75
2022-12-11T08:45:01.347Z,489.37
2022-12-11T08:46:01.516Z,495.00
2022-12-11T08:47:01.287Z,500.62
2022-12-11T08:48:01.279Z,495.00
2022-12-11T08:49:01.273Z,506.25
2022-12-11T08:50:01.271Z,534.37
2022-12-11T08:51:01.249Z,562.50
2022-12-11T08:52:01.246Z,585.00
2022-12-11T08:53:01.223Z,585.00
2022-12-11T08:54:01.215Z,579.37
2022-12-11T08:55:01.205Z,590.62
2022-12-11T08:56:01.197Z,601.87
2022-12-11T08:57:01.183Z,579.37
2022-12-11T08:58:01.178Z,568.12
2022-12-11T08:59:01.185Z,579.37
2022-12-11T09:00:01.156Z,585.00
2022-12-11T09:01:01.231Z,613.12
2022-12-11T09:02:01.134Z,663.75
2022-12-11T09:03:01.123Z,675.00
2022-12-11T09:04:01.113Z,652.50
2022-12-11T09:05:01.107Z,635.62
2022-12-11T09:06:01.095Z,618.75
2022-12-11T09:07:01.083Z,438.75
2022-12-11T09:08:01.132Z,303.75
2022-12-11T09:09:01.066Z,585.00
2022-12-11T09:10:01.053Z,815.62
2022-12-11T09:11:01.047Z,787.50
2022-12-11T09:12:01.035Z,770.62
2022-12-11T09:13:01.025Z,804.37
2022-12-11T09:14:06.870Z,916.87
2022-12-11T09:15:02.071Z,1254.37
2022-12-11T09:16:01.084Z,1445.62
2022-12-11T09:17:01.011Z,1293.75
2022-12-11T09:18:00.974Z,1215.00
2022-12-11T09:19:00.967Z,1153.12
2022-12-11T09:20:00.960Z,1074.37
2022-12-11T09:21:00.945Z,1006.87
2022-12-11T09:22:00.933Z,984.37
2022-12-11T09:23:00.923Z,1068.75
2022-12-11T09:24:00.914Z,1080.00
2022-12-11T09:25:00.901Z,1108.12
2022-12-11T09:26:00.890Z,1153.12
2022-12-11T09:27:00.883Z,1260.00
2022-12-11T09:28:00.875Z,1333.12
2022-12-11T09:29:00.860Z,1226.25
2022-12-11T09:30:00.856Z,1141.87
2022-12-11T09:31:00.917Z,1147.50
2022-12-11T09:32:00.831Z,1147.50
2022-12-11T09:33:00.849Z,1091.25
2022-12-11T09:34:00.819Z,1113.75
2022-12-11T09:35:00.800Z,1040.62
2022-12-11T09:36:00.789Z,967.50
2022-12-11T09:37:00.778Z,1102.50
2022-12-11T09:38:00.768Z,1147.50
2022-12-11T09:39:00.761Z,967.50
2022-12-11T09:40:07.121Z,939.37
2022-12-11T09:41:01.764Z,1051.87
2022-12-11T09:42:00.729Z,1153.12
2022-12-11T09:43:00.717Z,1108.12
2022-12-11T09:44:00.710Z,1141.87
2022-12-11T09:45:00.700Z,1203.75
2022-12-11T09:46:00.702Z,1164.37
2022-12-11T09:47:00.679Z,1063.12
2022-12-11T09:48:00.669Z,1158.75
2022-12-11T09:49:00.682Z,1164.37
2022-12-11T09:50:00.651Z,1119.37
2022-12-11T09:51:00.638Z,1158.75
2022-12-11T09:52:00.625Z,1248.75
2022-12-11T09:53:00.616Z,1215.00
2022-12-11T09:54:00.613Z,1181.25
2022-12-11T09:55:00.610Z,1237.50
2022-12-11T09:56:00.588Z,1181.25
2022-12-11T09:57:00.577Z,1237.50
2022-12-11T09:58:00.570Z,1316.25
2022-12-11T09:59:00.557Z,1299.37
2022-12-11T10:00:04.719Z,1260.00
2022-12-11T10:01:00.538Z,1254.37
2022-12-11T10:02:00.530Z,1276.87
2022-12-11T10:03:00.593Z,1282.50
2022-12-11T10:04:00.509Z,1366.87
2022-12-11T10:05:00.528Z,1316.25
2022-12-11T10:06:04.501Z,1265.62
2022-12-11T10:07:00.480Z,1276.87
2022-12-11T10:08:00.560Z,1344.37
2022-12-11T10:09:00.458Z,1338.75
2022-12-11T10:10:00.450Z,1276.87
2022-12-11T10:11:00.439Z,1231.87
2022-12-11T10:12:00.423Z,1293.75
2022-12-11T10:13:00.420Z,1305.00
2022-12-11T10:14:00.410Z,1226.25
2022-12-11T10:15:00.507Z,1293.75
2022-12-11T10:16:00.479Z,1355.62
2022-12-11T10:17:00.376Z,1400.62
2022-12-11T10:18:04.856Z,1350.00
2022-12-11T10:19:00.358Z,1451.25
2022-12-11T10:20:00.350Z,1473.75
2022-12-11T10:21:00.354Z,1293.75
2022-12-11T10:22:00.329Z,1378.12
2022-12-11T10:23:00.314Z,1378.12
2022-12-11T10:24:00.305Z,1434.37
2022-12-11T10:25:11.220Z,1468.12
2022-12-11T10:27:29.568Z,1625.62
2022-12-11T10:27:31.195Z,1636.87
2022-12-11T10:28:51.570Z,1597.50
2022-12-11T10:29:30.934Z,1513.12
2022-12-11T10:32:00.319Z,1586.25
2022-12-11T10:32:01.729Z,1591.87
2022-12-11T10:33:01.723Z,1603.12
2022-12-11T10:34:01.708Z,1563.75
2022-12-11T10:35:01.694Z,1586.25
2022-12-11T15:02:54.052Z,1035.00
2022-12-11T15:04:55.454Z,961.87
2022-12-11T15:06:55.429Z,894.37
2022-12-11T15:08:55.409Z,883.12
2022-12-11T15:12:55.377Z,731.25
2022-12-11T15:13:55.368Z,697.50
2022-12-11T15:14:55.355Z,658.12
2022-12-11T15:16:55.401Z,618.75
2022-12-11T15:18:55.333Z,590.62
2022-12-11T15:19:55.304Z,540.00
2022-12-11T15:20:55.291Z,506.25
2022-12-11T15:23:55.260Z,421.87
2022-12-11T15:24:55.255Z,405.00
2022-12-11T15:25:55.238Z,376.87
2022-12-11T15:26:55.229Z,343.12
2022-12-11T15:27:55.220Z,309.37
2022-12-11T15:28:55.211Z,292.50
2022-12-11T15:29:55.200Z,281.25
2022-12-11T15:30:55.268Z,258.75
2022-12-11T15:31:55.180Z,230.62
2022-12-11T15:32:55.171Z,213.75
2022-12-11T15:33:55.171Z,202.50
2022-12-11T15:34:55.169Z,174.37
2022-12-11T15:35:55.139Z,129.37
2022-12-11T15:36:55.129Z,84.37
2022-12-11T15:37:55.119Z,45.00
2022-12-11T15:38:55.110Z,28.12
2022-12-11T15:39:55.103Z,28.12
2022-12-11T15:40:55.088Z,22.50
2022-12-11T15:41:55.077Z,22.50
2022-12-11T15:42:55.071Z,22.50
2022-12-11T15:43:58.574Z,16.87
2022-12-11T15:44:55.150Z,16.87
2022-12-11T15:45:55.080Z,16.87
2022-12-11T15:46:55.030Z,11.25
2022-12-11T15:47:55.017Z,11.25
2022-12-11T15:48:55.010Z,11.25
2022-12-11T15:49:54.996Z,11.25
2022-12-11T15:50:55.008Z,11.25
2022-12-11T15:51:54.977Z,5.62
2022-12-11T15:52:54.969Z,5.62
2022-12-11T15:53:54.954Z,5.62
2022-12-11T15:55:54.938Z,5.62
2022-12-11T15:56:54.928Z,5.62
2022-12-11T15:57:54.917Z,0.00
2022-12-11T15:59:54.898Z,0.00
2022-12-11T16:00:54.886Z,0.00
2022-12-11T16:01:54.904Z,0.00
2022-12-11T16:02:54.915Z,0.00
2022-12-11T16:03:54.854Z,0.00
2022-12-11T16:04:54.844Z,0.00
2022-12-11T16:05:54.840Z,0.00
2022-12-11T16:06:54.846Z,0.00
2022-12-11T16:07:54.893Z,0.00
2022-12-11T16:08:54.803Z,0.00
2022-12-11T16:09:54.802Z,0.00
2022-12-11T16:12:54.762Z,0.00
2022-12-11T16:14:54.741Z,0.00
2022-12-11T16:15:54.831Z,0.00
2022-12-11T16:19:54.694Z,0.00
2022-12-11T16:20:54.683Z,0.00
2022-12-11T16:28:54.608Z,0.00
2022-12-11T16:29:54.593Z,0.00
2022-12-11T16:36:54.525Z,0.00
2022-12-11T16:40:54.482Z,0.00
2022-12-11T17:28:00.015Z,0.00
2022-12-11T17:44:53.845Z,0.00
2022-12-11T18:09:53.587Z,0.00
2022-12-11T18:52:53.146Z,0.00
2022-12-11T19:30:52.765Z,0.00
2022-12-11T19:38:54.394Z,0.00
2022-12-11T19:43:52.639Z,0.00
